Time;durP1;ratioP1;P1;durP2;ratioP2;P2;SDS_P1;SDS_P2;PMS_P1;PMS_P2;Temp;Humidity;BMP_temperature;BMP_pressure;BME280_temperature;BME280_humidity;BME280_pressure;Samples;Min_cycle;Max_cycle;Signal;HPM_P1;HPM_P2
2022/04/28 00:00:41;;;;;;;2.50;1.00;;;15.40;59.70;;;;;;5002172;28;20128;-77
2022/04/28 00:03:16;;;;;;;2.15;0.90;;;15.40;59.70;;;;;;4995177;28;20073;-77
2022/04/28 00:05:43;;;;;;;2.25;1.00;;;15.40;59.70;;;;;;5000427;28;20041;-77
2022/04/28 00:08:17;;;;;;;2.00;1.02;;;15.40;59.70;;;;;;4986761;28;20581;-77
2022/04/28 00:10:46;;;;;;;1.65;1.08;;;15.40;59.80;;;;;;4999552;28;20048;-77
2022/04/28 00:13:13;;;;;;;3.08;1.10;;;15.40;59.80;;;;;;4997599;28;20136;-77
2022/04/28 00:15:50;;;;;;;2.53;1.10;;;15.40;59.80;;;;;;4998623;28;20041;-77
2022/04/28 00:18:17;;;;;;;1.83;0.90;;;15.40;59.80;;;;;;5000455;28;20073;-76
2022/04/28 00:20:47;;;;;;;2.35;1.10;;;15.40;59.80;;;;;;5003533;28;20042;-77
2022/04/28 00:23:16;;;;;;;1.75;1.00;;;15.40;59.90;;;;;;5000708;28;20038;-77
2022/04/28 00:25:44;;;;;;;2.38;1.10;;;15.40;59.80;;;;;;5002623;28;20485;-77
2022/04/28 00:28:11;;;;;;;2.63;0.90;;;15.40;59.90;;;;;;4992430;28;20041;-76
2022/04/28 00:30:38;;;;;;;1.95;1.13;;;15.40;59.80;;;;;;5012050;28;20048;-77
2022/04/28 00:33:06;;;;;;;1.60;1.00;;;15.40;59.80;;;;;;5001701;28;20068;-77
2022/04/28 00:35:33;;;;;;;1.90;1.00;;;15.40;59.80;;;;;;4999309;28;20038;-77
2022/04/28 00:38:00;;;;;;;1.80;1.00;;;15.30;59.70;;;;;;4998903;28;20084;-77
2022/04/28 00:40:43;;;;;;;2.55;1.30;;;15.40;59.80;;;;;;4994251;28;20959;-77
2022/04/28 00:43:19;;;;;;;2.22;1.00;;;15.40;59.90;;;;;;4995136;28;20038;-77
2022/04/28 00:45:48;;;;;;;3.42;1.20;;;15.40;59.80;;;;;;4996509;28;20034;-77
2022/04/28 00:51:05;;;;;;;3.25;1.10;;;15.40;59.90;;;;;;5001722;28;20049;-77
2022/04/28 00:53:49;;;;;;;1.70;0.93;;;15.40;59.90;;;;;;4997494;28;20049;-76
2022/04/28 00:56:16;;;;;;;3.15;0.98;;;15.30;59.80;;;;;;5004169;28;20055;-77
2022/04/28 00:58:49;;;;;;;2.17;1.10;;;15.30;59.70;;;;;;5011789;28;20281;-77
2022/04/28 01:01:17;;;;;;;1.75;0.90;;;15.30;59.80;;;;;;4999570;28;20121;-77
2022/04/28 01:03:46;;;;;;;1.67;1.00;;;15.30;59.80;;;;;;4979666;28;20520;-77
2022/04/28 01:06:16;;;;;;;;;;;15.30;59.80;;;;;;4999494;28;20473;-77
2022/04/28 01:08:43;;;;;;;2.88;1.02;;;15.30;59.70;;;;;;4999673;28;19921;-75
2022/04/28 01:11:10;;;;;;;4.32;1.30;;;15.30;59.80;;;;;;5002771;28;20057;-75
2022/04/28 01:13:44;;;;;;;3.80;1.10;;;15.30;59.80;;;;;;4993304;28;20042;-75
2022/04/28 01:16:16;;;;;;;2.78;1.10;;;15.40;59.90;;;;;;4994248;28;20128;-74
2022/04/28 01:18:45;;;;;;;2.08;0.93;;;15.30;59.80;;;;;;4989837;28;20121;-77
2022/04/28 01:21:13;;;;;;;2.15;1.10;;;15.30;59.80;;;;;;5001715;28;20038;-75
2022/04/28 01:23:44;;;;;;;;;;;15.30;59.80;;;;;;4999962;28;20048;-75
2022/04/28 01:26:12;;;;;;;2.10;1.17;;;15.30;59.80;;;;;;4995837;28;20745;-74
2022/04/28 01:28:51;;;;;;;2.20;0.90;;;15.30;59.80;;;;;;4991503;28;20443;-77
2022/04/28 01:31:17;;;;;;;2.67;1.20;;;15.30;59.80;;;;;;4999001;28;20401;-75
2022/04/28 01:33:45;;;;;;;1.95;1.10;;;15.30;59.80;;;;;;5001204;28;20065;-75
2022/04/28 01:36:13;;;;;;;2.47;1.13;;;15.30;59.80;;;;;;5007444;28;20034;-75
2022/04/28 01:38:53;;;;;;;1.97;1.10;;;15.30;59.80;;;;;;4998805;28;20042;-75
2022/04/28 01:41:20;;;;;;;2.28;1.10;;;15.30;59.80;;;;;;5003623;28;20042;-75
2022/04/28 01:43:47;;;;;;;2.25;1.10;;;15.40;59.90;;;;;;4995648;28;20129;-76
2022/04/28 01:46:17;;;;;;;2.35;1.02;;;15.30;59.80;;;;;;5011769;28;20033;-76
2022/04/28 01:48:44;;;;;;;2.45;1.10;;;15.20;59.70;;;;;;4985176;28;20034;-76
2022/04/28 01:56:46;;;;;;;2.38;1.20;;;15.30;59.80;;;;;;5003069;28;20038;-75
2022/04/28 01:59:16;;;;;;;2.03;1.00;;;15.30;59.80;;;;;;4984027;28;20082;-76
2022/04/28 02:01:43;;;;;;;1.80;1.00;;;15.30;59.80;;;;;;4982743;28;20060;-76
2022/04/28 02:04:16;;;;;;;1.92;1.00;;;15.30;59.80;;;;;;4973945;28;20042;-76
2022/04/28 02:06:44;;;;;;;1.95;1.00;;;15.20;59.70;;;;;;4977205;28;20077;-75
2022/04/28 02:09:16;;;;;;;1.83;1.10;;;15.30;59.80;;;;;;4958846;28;20090;-75
2022/04/28 02:11:42;;;;;;;2.13;1.10;;;15.20;59.70;;;;;;4970468;28;20043;-75
2022/04/28 02:14:16;;;;;;;2.35;0.95;;;15.20;59.70;;;;;;4975754;28;20039;-75
2022/04/28 02:16:49;;;;;;;2.92;1.30;;;15.20;59.70;;;;;;4982093;28;20039;-75
2022/04/28 02:19:16;;;;;;;4.18;1.30;;;15.20;59.70;;;;;;4959716;28;20047;-75
2022/04/28 02:21:47;;;;;;;3.25;1.30;;;15.20;59.70;;;;;;4982271;28;20050;-75
2022/04/28 02:24:16;;;;;;;1.98;1.20;;;15.20;59.70;;;;;;4978119;28;20054;-75
2022/04/28 02:27:01;;;;;;;3.00;1.10;;;15.20;59.70;;;;;;4976999;28;20586;-75
2022/04/28 02:29:28;;;;;;;1.95;1.10;;;15.20;59.60;;;;;;4982652;28;20042;-75
2022/04/28 02:31:55;;;;;;;2.75;1.20;;;15.20;59.60;;;;;;4962830;28;20057;-75
2022/04/28 02:34:22;;;;;;;2.10;1.15;;;15.20;59.60;;;;;;4978763;28;20088;-75
2022/04/28 02:36:51;;;;;;;2.67;1.10;;;15.20;59.60;;;;;;4979566;28;20468;-75
2022/04/28 02:39:18;;;;;;;3.42;1.20;;;15.20;59.60;;;;;;4981484;28;20038;-76
2022/04/28 02:41:49;;;;;;;2.38;1.35;;;15.20;59.60;;;;;;4983561;28;20054;-75
2022/04/28 02:44:16;;;;;;;2.42;1.05;;;15.20;59.60;;;;;;4978665;28;20743;-74
2022/04/28 02:46:45;;;;;;;3.22;1.35;;;15.20;59.70;;;;;;4979427;28;20034;-75
2022/04/28 02:49:16;;;;;;;1.95;1.23;;;15.20;59.60;;;;;;4985912;28;20049;-75
2022/04/28 02:52:04;;;;;;;2.50;1.10;;;15.20;59.60;;;;;;4984373;28;20055;-75
2022/04/28 02:54:32;;;;;;;1.88;1.20;;;15.20;59.60;;;;;;4991272;28;20034;-75
2022/04/28 02:57:00;;;;;;;2.40;1.10;;;15.20;59.60;;;;;;4992682;28;20061;-75
2022/04/28 02:59:30;;;;;;;2.63;0.98;;;15.20;59.60;;;;;;4983139;28;20068;-75
2022/04/28 03:01:59;;;;;;;2.83;1.27;;;15.20;59.60;;;;;;4982456;28;20041;-75
2022/04/28 03:04:28;;;;;;;2.15;1.10;;;15.20;59.60;;;;;;5004738;28;20050;-74
2022/04/28 03:12:37;;;;;;;2.72;1.13;;;15.20;59.60;;;;;;5002674;28;20053;-75
2022/04/28 03:15:16;;;;;;;2.67;1.23;;;15.20;59.60;;;;;;4999837;28;20038;-75
2022/04/28 03:17:43;;;;;;;3.35;1.20;;;15.20;59.60;;;;;;4993535;28;20093;-75
2022/04/28 03:20:16;;;;;;;2.60;1.33;;;15.20;59.60;;;;;;4977826;28;20129;-75
2022/04/28 03:22:45;;;;;;;2.50;1.25;;;15.20;59.60;;;;;;5001907;28;20409;-75
2022/04/28 03:25:17;;;;;;;2.22;1.33;;;15.20;59.60;;;;;;4995214;28;20047;-75
2022/04/28 03:27:50;;;;;;;2.17;1.15;;;15.20;59.60;;;;;;4999168;28;20129;-75
2022/04/28 03:30:17;;;;;;;3.13;1.30;;;15.10;59.50;;;;;;4996404;28;20054;-75
2022/04/28 03:32:44;;;;;;;4.40;1.33;;;15.10;60.20;;;;;;4996016;28;20034;-76
2022/04/28 03:35:17;;;;;;;1.73;1.02;;;15.10;59.50;;;;;;4999060;28;20495;-75
2022/04/28 03:37:47;;;;;;;2.22;1.10;;;15.20;59.60;;;;;;4997646;28;20029;-75
2022/04/28 03:40:17;;;;;;;2.30;1.30;;;15.10;59.50;;;;;;4996110;28;20048;-75
2022/04/28 03:42:46;;;;;;;2.45;1.30;;;15.10;59.50;;;;;;4996586;28;20112;-76
2022/04/28 03:45:16;;;;;;;2.92;1.35;;;15.10;59.50;;;;;;4990190;28;20042;-75
2022/04/28 03:47:50;;;;;;;3.03;1.17;;;15.20;59.60;;;;;;4994006;28;20040;-76
2022/04/28 03:50:17;;;;;;;3.67;1.40;;;15.10;59.50;;;;;;4999420;28;20046;-76
2022/04/28 03:52:48;;;;;;;2.43;1.20;;;15.10;59.50;;;;;;5000581;28;20038;-75
2022/04/28 03:55:17;;;;;;;2.92;1.35;;;15.10;59.50;;;;;;5000892;28;20061;-76
2022/04/28 03:57:44;;;;;;;3.15;1.40;;;15.10;59.50;;;;;;4994611;28;20069;-76
2022/04/28 04:00:17;;;;;;;3.30;1.15;;;15.10;59.50;;;;;;5002132;28;20052;-75
2022/04/28 04:02:44;;;;;;;2.22;1.17;;;15.10;59.50;;;;;;4996766;28;20133;-76
2022/04/28 04:05:12;;;;;;;3.10;1.27;;;15.10;59.50;;;;;;5004281;28;20038;-76
2022/04/28 04:07:57;;;;;;;2.55;1.30;;;15.10;59.50;;;;;;5003531;28;20075;-75
2022/04/28 04:10:25;;;;;;;3.17;1.38;;;15.10;59.50;;;;;;5004022;28;20034;-76
2022/04/28 04:12:52;;;;;;;3.17;1.50;;;15.10;59.50;;;;;;4973473;28;20041;-76
2022/04/28 04:15:19;;;;;;;2.50;1.33;;;15.10;59.50;;;;;;4989330;28;20044;-76
2022/04/28 04:17:46;;;;;;;2.67;1.23;;;15.00;59.40;;;;;;4993351;28;20123;-76
2022/04/28 04:20:13;;;;;;;4.00;1.48;;;15.10;59.50;;;;;;5001059;28;20072;-76
2022/04/28 04:22:49;;;;;;;2.58;1.20;;;15.10;59.50;;;;;;4995438;28;20492;-76
2022/04/28 04:25:16;;;;;;;3.47;1.27;;;15.10;59.40;;;;;;4993173;28;20533;-76
2022/04/28 04:27:48;;;;;;;2.67;1.05;;;15.10;59.50;;;;;;4990739;28;20128;-76
2022/04/28 04:33:01;;;;;;;3.25;1.25;;;15.10;59.40;;;;;;4992878;28;20045;-75
2022/04/28 04:35:47;;;;;;;2.83;1.30;;;15.10;59.40;;;;;;5004690;28;20052;-76
2022/04/28 04:38:14;;;;;;;3.40;1.50;;;15.00;59.40;;;;;;4984260;28;20095;-76
2022/04/28 04:40:40;;;;;;;3.08;1.20;;;15.00;59.40;;;;;;4999583;28;20409;-76
2022/04/28 04:43:17;;;;;;;2.25;1.20;;;15.00;59.40;;;;;;4976135;28;20042;-76
2022/04/28 04:45:44;;;;;;;2.78;1.30;;;15.10;59.70;;;;;;4999353;28;20153;-76
2022/04/28 04:48:16;;;;;;;2.25;1.20;;;15.00;59.40;;;;;;5001184;28;20050;-76
2022/04/28 04:50:57;;;;;;;3.58;1.58;;;15.00;59.40;;;;;;5013342;28;20501;-75
2022/04/28 04:53:42;;;;;;;3.05;1.52;;;15.00;59.40;;;;;;5001975;28;20057;-76
2022/04/28 04:56:09;;;;;;;3.95;1.40;;;15.00;59.40;;;;;;4999271;28;20037;-76
2022/04/28 04:58:40;;;;;;;2.58;1.30;;;15.00;59.40;;;;;;4980464;28;20577;-76
2022/04/28 05:01:07;;;;;;;2.33;1.15;;;15.00;59.40;;;;;;5003652;28;20046;-75
2022/04/28 05:03:38;;;;;;;3.35;1.60;;;15.00;59.40;;;;;;5005576;28;20128;-76
2022/04/28 05:06:16;;;;;;;2.63;1.30;;;15.00;59.40;;;;;;4991253;28;20052;-76
2022/04/28 05:08:43;;;;;;;2.78;1.33;;;15.00;59.40;;;;;;5004573;28;20489;-76
2022/04/28 05:11:17;;;;;;;3.58;1.50;;;15.00;59.30;;;;;;5003222;28;20042;-76
2022/04/28 05:13:45;;;;;;;2.72;1.40;;;15.00;59.40;;;;;;5002551;28;20284;-75
2022/04/28 05:16:12;;;;;;;2.85;1.40;;;15.00;59.40;;;;;;5004107;28;20042;-75
2022/04/28 05:18:50;;;;;;;4.20;1.50;;;15.00;59.40;;;;;;5005235;28;20037;-75
2022/04/28 05:21:17;;;;;;;2.50;1.35;;;15.00;59.40;;;;;;5003207;28;20097;-76
2022/04/28 05:23:44;;;;;;;2.60;1.30;;;15.00;59.30;;;;;;5004436;28;20060;-75
2022/04/28 05:26:11;;;;;;;3.25;1.50;;;15.00;59.30;;;;;;4987714;28;20578;-76
2022/04/28 05:28:42;;;;;;;3.25;1.33;;;15.00;59.30;;;;;;4984287;28;20057;-76
2022/04/28 05:31:17;;;;;;;3.95;1.40;;;15.00;59.40;;;;;;5004458;28;20045;-76
2022/04/28 05:33:45;;;;;;;2.08;1.27;;;15.00;59.30;;;;;;5002358;28;20104;-75
2022/04/28 05:36:17;;;;;;;3.13;1.42;;;15.00;59.30;;;;;;5006202;28;20042;-75
2022/04/28 05:38:45;;;;;;;3.88;1.30;;;15.00;59.30;;;;;;4985322;28;20392;-76
2022/04/28 05:41:15;;;;;;;2.53;1.17;;;15.00;59.30;;;;;;5009190;28;20497;-76
2022/04/28 05:46:41;;;;;;;2.53;1.33;;;15.00;59.30;;;;;;5018849;28;20056;-76
2022/04/28 05:49:08;;;;;;;2.58;1.30;;;15.00;59.30;;;;;;5003370;28;20045;-76
2022/04/28 05:51:36;;;;;;;3.50;1.33;;;15.00;59.30;;;;;;5006521;28;20405;-76
2022/04/28 05:54:06;;;;;;;4.03;1.40;;;15.00;59.30;;;;;;4996894;28;20045;-75
2022/04/28 05:56:42;;;;;;;3.88;1.30;;;15.00;59.30;;;;;;5002105;28;20049;-75
2022/04/28 05:59:10;;;;;;;3.60;1.55;;;15.00;59.30;;;;;;4983317;28;20050;-76
2022/04/28 06:01:37;;;;;;;3.40;1.50;;;15.00;59.20;;;;;;5006173;28;20037;-75
2022/04/28 06:04:17;;;;;;;3.53;1.33;;;15.00;59.20;;;;;;5006220;28;20057;-76
2022/04/28 06:06:45;;;;;;;2.60;1.27;;;15.00;59.20;;;;;;5004254;28;20042;-76
2022/04/28 06:09:16;;;;;;;2.65;1.30;;;15.00;59.20;;;;;;4983285;28;20053;-76
2022/04/28 06:11:46;;;;;;;2.13;1.15;;;14.90;59.10;;;;;;5000745;28;20489;-76
2022/04/28 06:14:16;;;;;;;3.45;1.50;;;15.00;59.20;;;;;;4981408;28;20126;-75
2022/04/28 06:16:43;;;;;;;3.00;1.50;;;15.10;59.30;;;;;;4996889;28;20045;-76
2022/04/28 06:19:19;;;;;;;3.53;1.65;;;15.10;59.20;;;;;;4993125;28;20053;-76
2022/04/28 06:21:46;;;;;;;3.25;1.52;;;15.00;59.10;;;;;;4991978;28;20057;-77
2022/04/28 06:24:16;;;;;;;3.38;1.40;;;15.00;59.20;;;;;;5003560;28;20224;-75
2022/04/28 06:26:43;;;;;;;3.03;1.30;;;15.00;59.10;;;;;;4978570;28;20926;-76
2022/04/28 06:29:13;;;;;;;2.22;1.30;;;14.90;59.60;;;;;;4982193;28;20900;-75
2022/04/28 06:31:41;;;;;;;3.10;1.40;;;15.00;59.10;;;;;;5002132;28;20065;-75
2022/04/28 06:34:10;;;;;;;1.75;1.00;;;15.10;59.20;;;;;;4999557;28;20145;-76
2022/04/28 06:36:38;;;;;;;2.20;1.17;;;15.00;59.10;;;;;;5003467;28;20064;-75
2022/04/28 06:39:16;;;;;;;2.40;1.10;;;15.00;59.10;;;;;;4998030;28;20061;-76
2022/04/28 06:41:45;;;;;;;2.72;1.23;;;15.00;59.70;;;;;;4987625;28;20049;-75
2022/04/28 06:44:16;;;;;;;3.03;1.30;;;15.00;59.10;;;;;;5007309;28;20124;-76
2022/04/28 06:46:55;;;;;;;2.53;1.10;;;15.20;59.20;;;;;;5011292;28;20316;-76
2022/04/28 06:49:23;;;;;;;2.90;1.35;;;15.10;59.10;;;;;;5017971;28;20037;-76
2022/04/28 06:51:55;;;;;;;2.93;1.23;;;15.10;59.10;;;;;;4988334;28;20188;-76
2022/04/28 06:54:24;;;;;;;3.05;1.23;;;15.10;59.10;;;;;;4981946;28;20559;-76
2022/04/28 06:56:52;;;;;;;2.35;1.33;;;15.00;59.00;;;;;;4990933;28;20093;-75
2022/04/28 06:59:25;;;;;;;2.72;1.40;;;15.10;59.10;;;;;;4981039;28;20573;-75
2022/04/28 07:01:51;;;;;;;3.05;1.40;;;15.10;59.00;;;;;;4999266;28;20052;-76
2022/04/28 07:04:18;;;;;;;2.90;1.30;;;15.10;59.00;;;;;;4998921;28;20044;-76
2022/04/28 07:07:03;;;;;;;2.95;1.38;;;15.10;59.10;;;;;;4997945;28;20168;-75
2022/04/28 07:09:30;;;;;;;3.60;1.50;;;15.10;59.00;;;;;;4999801;28;20144;-75
2022/04/28 07:11:57;;;;;;;3.72;1.40;;;15.10;59.00;;;;;;5002711;28;20059;-75
2022/04/28 07:14:24;;;;;;;3.63;1.58;;;15.10;59.00;;;;;;4997256;28;20125;-75
2022/04/28 07:16:51;;;;;;;2.70;1.40;;;15.10;59.00;;;;;;4979561;28;20467;-74
2022/04/28 07:19:18;;;;;;;2.80;1.30;;;15.10;59.00;;;;;;4987097;28;20049;-75
2022/04/28 07:21:46;;;;;;;2.95;1.48;;;15.10;59.00;;;;;;4995523;28;20034;-76
2022/04/28 07:24:17;;;;;;;3.13;1.40;;;15.10;59.00;;;;;;5000941;28;20125;-75
2022/04/28 07:26:47;;;;;;;3.85;1.58;;;15.10;59.00;;;;;;4977069;28;20077;-74
2022/04/28 07:29:16;;;;;;;3.00;1.50;;;15.10;59.00;;;;;;5002123;28;20033;-75
2022/04/28 07:31:44;;;;;;;3.33;1.50;;;15.10;59.00;;;;;;5000210;28;20080;-76
2022/04/28 07:34:17;;;;;;;2.92;1.35;;;15.10;59.00;;;;;;4979822;28;20038;-75
2022/04/28 07:36:44;;;;;;;3.65;1.23;;;15.10;59.00;;;;;;4993099;28;20141;-75
2022/04/28 07:39:12;;;;;;;3.50;1.20;;;15.10;59.10;;;;;;4996293;28;20046;-75
2022/04/28 07:41:43;;;;;;;2.25;1.25;;;15.20;59.20;;;;;;4980489;28;20485;-76
2022/04/28 07:44:16;;;;;;;2.88;1.40;;;15.20;59.20;;;;;;4999446;28;20128;-77
2022/04/28 07:46:43;;;;;;;3.05;1.35;;;15.20;59.20;;;;;;4994931;28;20090;-76
2022/04/28 07:49:16;;;;;;;2.90;1.30;;;15.20;59.10;;;;;;4999965;28;20782;-76
2022/04/28 07:51:43;;;;;;;9.02;2.97;;;15.20;59.20;;;;;;5000197;28;20049;-75
2022/04/28 07:54:17;;;;;;;8.43;3.95;;;15.20;58.60;;;;;;4978015;28;20050;-77
2022/04/28 07:56:45;;;;;;;8.57;4.20;;;15.00;57.90;;;;;;4990698;28;20046;-77
2022/04/28 07:59:16;;;;;;;10.40;4.30;;;15.00;58.20;;;;;;5000691;28;20046;-76
2022/04/28 08:01:45;;;;;;;10.77;3.65;;;14.90;58.20;;;;;;5001955;28;20038;-76
2022/04/28 08:04:16;;;;;;;8.07;2.88;;;14.90;58.60;;;;;;5002347;28;20060;-76
2022/04/28 08:06:43;;;;;;;6.85;3.22;;;15.00;58.70;;;;;;5000693;28;20064;-76
2022/04/28 08:09:16;;;;;;;7.82;3.10;;;15.00;58.70;;;;;;4998837;28;20068;-78
2022/04/28 08:11:44;;;;;;;7.80;3.03;;;15.00;58.70;;;;;;4997156;28;20068;-77
2022/04/28 08:14:23;;;;;;;10.13;3.53;;;15.00;58.60;;;;;;5000855;28;20065;-76
2022/04/28 08:16:50;;;;;;;8.20;3.55;;;15.00;58.50;;;;;;5003300;28;20042;-75
2022/04/28 08:19:26;;;;;;;7.72;3.40;;;15.10;58.60;;;;;;4988925;28;20042;-77
2022/04/28 08:21:53;;;;;;;11.35;3.53;;;15.10;58.50;;;;;;5010897;28;20022;-76
2022/04/28 08:24:21;;;;;;;8.65;3.38;;;15.10;58.50;;;;;;5025866;28;20045;-76
2022/04/28 08:26:49;;;;;;;7.88;3.10;;;15.10;58.70;;;;;;4981111;28;20049;-76
2022/04/28 08:29:16;;;;;;;5.35;2.95;;;15.10;58.50;;;;;;5000470;28;20112;-75
2022/04/28 08:31:44;;;;;;;8.40;3.03;;;15.10;58.50;;;;;;5001373;28;20056;-75
2022/04/28 08:34:11;;;;;;;7.45;3.00;;;15.20;58.70;;;;;;5000044;28;20049;-76
2022/04/28 08:36:39;;;;;;;6.57;3.30;;;15.20;58.70;;;;;;5001519;28;20077;-76
2022/04/28 08:39:16;;;;;;;6.68;2.65;;;15.20;58.70;;;;;;4995212;28;20049;-76
2022/04/28 08:41:55;;;;;;;6.00;3.05;;;15.20;58.70;;;;;;4984684;28;20054;-77
2022/04/28 08:44:40;;;;;;;8.77;3.30;;;15.20;58.50;;;;;;5017572;28;20515;-77
2022/04/28 08:47:08;;;;;;;7.50;3.15;;;15.20;58.70;;;;;;5007000;28;20050;-77
2022/04/28 08:49:52;;;;;;;6.40;3.20;;;15.20;58.80;;;;;;5004083;28;20045;-76
2022/04/28 08:52:22;;;;;;;6.63;3.05;;;15.20;58.60;;;;;;4992101;28;20097;-77
2022/04/28 08:55:02;;;;;;;6.38;2.83;;;15.20;58.50;;;;;;5001017;28;20038;-76
2022/04/28 08:57:49;;;;;;;30.35;4.55;;;15.20;58.60;;;;;;4976211;28;20056;-76
2022/04/28 09:00:17;;;;;;;18.70;3.55;;;15.30;58.60;;;;;;4998846;28;20044;-77
2022/04/28 09:02:53;;;;;;;8.93;3.25;;;15.20;58.60;;;;;;4972260;28;20486;-79
2022/04/28 09:05:23;;;;;;;11.95;3.90;;;15.30;58.80;;;;;;4975551;28;20046;-78
2022/04/28 09:08:00;;;;;;;16.77;3.90;;;15.30;58.70;;;;;;4966908;28;20062;-77
2022/04/28 09:10:32;;;;;;;10.35;3.22;;;15.30;58.60;;;;;;4980965;28;20053;-79
2022/04/28 09:15:45;;;;;;;11.65;3.17;;;15.30;58.60;;;;;;4977713;28;20133;-77
2022/04/28 09:18:16;;;;;;;8.02;3.00;;;15.30;58.60;;;;;;4976407;28;20066;-76
2022/04/28 09:20:44;;;;;;;10.43;2.80;;;15.30;58.70;;;;;;4977231;28;20068;-76
2022/04/28 09:23:30;;;;;;;10.15;3.22;;;15.40;58.70;;;;;;4975701;28;20128;-76
2022/04/28 09:26:13;;;;;;;7.75;2.63;;;15.40;58.70;;;;;;4979406;28;20047;-77
2022/04/28 09:28:53;;;;;;;10.10;2.75;;;15.40;58.80;;;;;;4976043;28;20049;-77
2022/04/28 09:31:33;;;;;;;6.38;2.50;;;15.40;58.90;;;;;;4980428;28;20038;-77
2022/04/28 09:34:17;;;;;;;6.00;2.30;;;15.40;58.80;;;;;;4971733;28;20141;-76
2022/04/28 09:36:51;;;;;;;7.75;2.40;;;15.40;58.80;;;;;;4981036;28;20042;-76
2022/04/28 09:44:57;;;;;;;9.07;2.53;;;15.50;59.00;;;;;;4973096;28;20080;-78
2022/04/28 09:47:26;;;;;;;8.40;2.40;;;15.40;59.00;;;;;;4984734;28;20188;-76
2022/04/28 09:49:55;;;;;;;7.60;2.35;;;15.50;59.00;;;;;;4984023;28;20051;-78
2022/04/28 09:52:30;;;;;;;5.57;2.10;;;15.50;59.10;;;;;;4980607;28;20075;-77
2022/04/28 09:55:03;;;;;;;9.50;2.30;;;15.50;59.00;;;;;;4976636;28;20038;-77
2022/04/28 09:57:32;;;;;;;5.78;2.33;;;15.50;59.00;;;;;;4980495;28;20050;-76
2022/04/28 10:00:01;;;;;;;5.28;1.95;;;15.50;59.10;;;;;;4984295;28;20046;-76
2022/04/28 10:02:48;;;;;;;5.93;1.85;;;15.50;59.00;;;;;;4982195;28;20061;-76
2022/04/28 10:05:18;;;;;;;7.25;2.00;;;15.50;59.10;;;;;;5001567;28;20054;-76
2022/04/28 10:07:45;;;;;;;4.97;1.75;;;15.50;59.00;;;;;;4997090;28;20507;-76
2022/04/28 10:10:17;;;;;;;6.57;1.87;;;15.50;59.10;;;;;;5006294;28;20060;-75
2022/04/28 10:13:02;;;;;;;4.82;1.77;;;15.50;59.20;;;;;;4997322;28;20309;-74
2022/04/28 10:15:33;;;;;;;7.13;2.13;;;15.50;59.10;;;;;;4976731;28;20053;-76
2022/04/28 10:18:16;;;;;;;7.30;1.80;;;15.50;59.10;;;;;;5002422;28;20054;-78
2022/04/28 10:20:59;;;;;;;4.07;1.73;;;15.50;59.10;;;;;;5000240;28;20053;-77
2022/04/28 10:32:53;;;;;;;3.83;1.73;;;15.60;59.20;;;;;;4998376;28;20602;-78
2022/04/28 10:35:43;;;;;;;6.57;2.80;;;15.60;59.10;;;;;;5004179;28;20039;-80
2022/04/28 10:38:26;;;;;;;6.47;3.15;;;15.70;58.70;;;;;;5007407;28;20046;-76
2022/04/28 10:41:01;;;;;;;9.20;3.72;;;15.60;58.70;;;;;;5014926;28;20042;-77
2022/04/28 10:43:46;;;;;;;7.85;3.63;;;15.60;58.60;;;;;;5014789;28;20092;-78
2022/04/28 10:46:33;;;;;;;7.85;4.18;;;15.60;58.60;;;;;;5013442;28;20721;-78
2022/04/28 10:49:05;;;;;;;7.80;3.88;;;15.60;58.60;;;;;;5008332;28;20046;-77
2022/04/28 10:51:46;;;;;;;8.65;4.25;;;15.60;58.00;;;;;;5007211;28;20107;-78
2022/04/28 10:54:19;;;;;;;7.32;3.85;;;15.60;57.90;;;;;;5003396;28;20491;-78
2022/04/28 10:57:06;;;;;;;7.90;3.97;;;15.60;58.20;;;;;;5009179;28;20041;-77
2022/04/28 10:59:52;;;;;;;9.63;3.80;;;15.60;58.40;;;;;;5002360;28;20056;-79
2022/04/28 11:02:40;;;;;;;14.63;4.60;;;15.70;58.20;;;;;;5022573;28;20041;-78
2022/04/28 11:05:38;;;;;;;7.95;4.00;;;15.70;58.40;;;;;;5013384;28;20045;-77
2022/04/28 11:08:25;;;;;;;9.20;4.07;;;15.70;58.10;;;;;;5004754;28;20398;-77
2022/04/28 11:11:09;;;;;;;8.40;4.10;;;15.60;57.50;;;;;;5002858;28;20081;-79
2022/04/28 11:13:40;;;;;;;12.18;4.78;;;15.60;57.90;;;;;;4995077;28;20416;-76
2022/04/28 11:16:11;;;;;;;12.20;4.30;;;15.70;57.70;;;;;;5007647;28;20054;-78
2022/04/28 11:18:43;;;;;;;7.93;3.75;;;15.70;57.90;;;;;;4997647;28;20056;-78
2022/04/28 11:21:12;;;;;;;8.52;4.30;;;15.70;58.00;;;;;;4981640;28;20050;-78
2022/04/28 11:23:51;;;;;;;8.60;4.30;;;15.70;57.80;;;;;;4995908;28;20049;-78
2022/04/28 11:26:30;;;;;;;9.50;4.55;;;15.70;58.00;;;;;;5003657;28;20440;-78
2022/04/28 11:28:57;;;;;;;10.77;4.80;;;15.70;57.80;;;;;;4976124;28;20046;-79
2022/04/28 11:31:45;;;;;;;9.18;4.38;;;15.60;57.90;;;;;;4995391;28;20054;-78
2022/04/28 11:34:17;;;;;;;10.57;5.75;;;15.70;58.00;;;;;;5001260;28;20143;-77
2022/04/28 11:36:45;;;;;;;11.02;5.65;;;15.50;55.90;;;;;;5001780;28;20052;-77
2022/04/28 11:39:16;;;;;;;;;;;15.40;57.00;;;;;;4995740;28;20045;-74
2022/04/28 11:41:59;;;;;;;12.95;4.78;;;15.50;57.30;;;;;;5000372;28;19932;-75
2022/04/28 11:44:32;;;;;;;17.90;4.35;;;15.60;57.40;;;;;;4994679;28;20153;-74
2022/04/28 11:47:01;;;;;;;12.77;4.50;;;15.60;57.40;;;;;;5004925;28;20046;-75
2022/04/28 11:49:45;;;;;;;6.35;3.90;;;15.70;57.50;;;;;;5000282;28;20042;-75
2022/04/28 11:52:23;;;;;;;12.07;4.30;;;15.70;57.50;;;;;;4981671;28;20108;-74
2022/04/28 11:55:00;;;;;;;7.85;3.60;;;15.70;57.60;;;;;;5002617;28;20068;-74
2022/04/28 11:57:40;;;;;;;12.55;3.80;;;15.70;57.70;;;;;;5000999;28;20108;-74
2022/04/28 12:00:17;;;;;;;11.43;3.70;;;15.80;57.70;;;;;;4999881;28;20497;-75
2022/04/28 12:02:45;;;;;;;6.65;2.75;;;15.70;57.70;;;;;;4998517;28;20139;-74
2022/04/28 12:05:19;;;;;;;9.02;3.03;;;15.70;57.80;;;;;;5001642;28;20042;-76
2022/04/28 12:07:52;;;;;;;8.45;2.92;;;15.70;58.00;;;;;;5001186;28;20088;-75
2022/04/28 12:16:08;;;;;;;6.43;2.40;;;15.70;58.10;;;;;;4998834;28;20076;-76
2022/04/28 12:21:51;;;;;;;5.07;2.30;;;15.80;58.10;;;;;;5002496;28;20096;-75
2022/04/28 12:24:42;;;;;;;7.32;2.60;;;15.80;58.10;;;;;;4997834;28;20052;-75
2022/04/28 12:27:16;;;;;;;6.55;2.33;;;15.80;58.20;;;;;;4999514;28;20128;-75
2022/04/28 12:29:58;;;;;;;7.13;2.40;;;15.80;58.20;;;;;;5003015;28;20108;-74
2022/04/28 12:32:25;;;;;;;5.35;2.30;;;15.80;58.30;;;;;;4977742;28;20073;-73
2022/04/28 12:34:59;;;;;;;4.47;2.25;;;15.80;58.20;;;;;;5002005;28;20038;-74
2022/04/28 12:37:31;;;;;;;4.57;2.05;;;15.80;58.80;;;;;;5011889;28;20041;-74
2022/04/28 12:40:19;;;;;;;4.75;2.20;;;15.80;58.20;;;;;;5012152;28;20050;-74
2022/04/28 12:43:05;;;;;;;6.88;2.15;;;15.80;58.30;;;;;;5012367;28;20073;-75
2022/04/28 12:45:47;;;;;;;7.25;2.33;;;15.80;58.30;;;;;;5002177;28;20056;-74
2022/04/28 12:48:27;;;;;;;6.07;1.98;;;15.80;58.20;;;;;;4979921;28;20481;-74
2022/04/28 12:51:26;;;;;;;5.70;2.08;;;15.80;58.30;;;;;;5001869;28;20050;-74
2022/04/28 12:54:10;;;;;;;6.30;1.95;;;15.80;58.30;;;;;;4937949;29;20066;-75
2022/04/28 12:56:59;;;;;;;3.83;1.75;;;15.80;58.40;;;;;;4995467;28;20065;-75
2022/04/28 12:59:43;;;;;;;4.53;1.83;;;15.80;58.30;;;;;;5001181;28;20042;-75
2022/04/28 13:02:11;;;;;;;7.70;2.00;;;15.80;58.40;;;;;;4996856;28;20042;-74
2022/04/28 13:05:12;;;;;;;6.88;1.70;;;15.80;58.40;;;;;;5008596;28;20057;-74
2022/04/28 13:07:40;;;;;;;8.00;1.92;;;15.80;58.40;;;;;;5001395;28;20050;-74
2022/04/28 13:10:17;;;;;;;4.82;1.63;;;15.80;58.40;;;;;;4994609;28;20481;-74
2022/04/28 13:12:48;;;;;;;6.40;1.60;;;15.80;58.50;;;;;;4975918;28;20042;-74
2022/04/28 13:15:16;;;;;;;5.00;1.77;;;15.80;58.50;;;;;;4998966;28;20046;-74
2022/04/28 13:17:43;;;;;;;4.38;1.60;;;15.80;58.50;;;;;;4999277;28;20078;-75
2022/04/28 13:20:16;;;;;;;7.97;2.00;;;15.80;58.40;;;;;;5003549;28;20042;-74
2022/04/28 13:22:49;;;;;;;6.65;1.73;;;15.80;58.40;;;;;;5004141;28;20045;-75
2022/04/28 13:25:17;;;;;;;7.15;2.03;;;15.80;58.40;;;;;;5003624;28;20060;-75
2022/04/28 13:27:53;;;;;;;5.20;1.80;;;15.80;58.50;;;;;;5005048;28;20088;-74
2022/04/28 13:30:27;;;;;;;6.78;1.60;;;15.80;58.50;;;;;;5010644;28;20041;-73
2022/04/28 13:32:55;;;;;;;6.32;1.80;;;15.80;58.50;;;;;;4993538;28;20548;-74
2022/04/28 13:35:36;;;;;;;5.13;1.40;;;15.80;58.40;;;;;;4995515;28;20523;-73
2022/04/28 13:38:16;;;;;;;2.97;1.45;;;15.80;58.40;;;;;;5004374;28;20168;-73
2022/04/28 13:40:51;;;;;;;4.45;1.58;;;15.80;58.50;;;;;;5001982;28;20055;-74
2022/04/28 13:43:20;;;;;;;5.63;1.40;;;15.80;58.40;;;;;;5027922;28;20039;-74
2022/04/28 13:45:51;;;;;;;5.90;1.60;;;15.80;58.40;;;;;;5004070;28;20057;-74
2022/04/28 13:48:19;;;;;;;3.20;1.50;;;15.80;58.50;;;;;;5003382;28;20409;-72
2022/04/28 13:51:00;;;;;;;5.15;1.60;;;15.80;58.40;;;;;;5011343;28;20069;-75
2022/04/28 13:53:35;;;;;;;4.45;1.40;;;15.80;58.50;;;;;;5001915;28;20481;-74
2022/04/28 13:56:04;;;;;;;4.63;1.60;;;15.80;58.50;;;;;;5000092;28;20034;-74
2022/04/28 13:58:51;;;;;;;4.85;1.73;;;15.80;58.50;;;;;;5002872;28;20563;-75
2022/04/28 14:01:18;;;;;;;3.95;1.52;;;15.80;58.50;;;;;;5003380;28;20051;-74